Time;durP1;ratioP1;P1;durP2;ratioP2;P2;SDS_P1;SDS_P2;PMS_P1;PMS_P2;Temp;Humidity;BMP_temperature;BMP_pressure;BME280_temperature;BME280_humidity;BME280_pressure;Samples;Min_cycle;Max_cycle;Signal;HPM_P1;HPM_P2
2023/10/27 00:00:38;;;;;;;1.98;1.30;;;10.50;99.90;;;;;;5002910;28;20025;-30
2023/10/27 00:03:04;;;;;;;3.65;1.40;;;10.50;99.90;;;;;;5008468;28;20034;-30
2023/10/27 00:05:30;;;;;;;2.67;1.45;;;10.50;99.90;;;;;;5012407;28;20395;-30
2023/10/27 00:07:57;;;;;;;1.90;1.52;;;10.50;99.90;;;;;;5011284;28;20033;-34
2023/10/27 00:10:23;;;;;;;2.78;1.67;;;10.50;99.90;;;;;;5010312;28;20038;-32
2023/10/27 00:12:49;;;;;;;1.30;1.20;;;10.50;99.90;;;;;;5011058;28;20057;-35
2023/10/27 00:15:15;;;;;;;2.13;1.27;;;10.50;99.90;;;;;;5013128;28;20064;-32
2023/10/27 00:17:40;;;;;;;2.00;1.20;;;10.50;99.90;;;;;;5011914;28;20026;-31
2023/10/27 00:20:06;;;;;;;2.00;1.17;;;10.40;99.90;;;;;;5009465;28;20076;-31
2023/10/27 00:22:33;;;;;;;1.80;1.42;;;10.50;99.90;;;;;;5007340;28;20045;-42
2023/10/27 00:25:02;;;;;;;1.20;1.10;;;10.40;99.90;;;;;;5003492;28;20092;-35
2023/10/27 00:27:28;;;;;;;1.90;1.08;;;10.30;99.90;;;;;;5010313;28;20375;-39
2023/10/27 00:29:53;;;;;;;1.02;0.93;;;10.30;99.90;;;;;;5007428;28;20032;-41
2023/10/27 00:32:20;;;;;;;0.95;0.77;;;10.20;99.90;;;;;;5003332;28;20069;-32
2023/10/27 00:34:46;;;;;;;2.28;1.00;;;10.20;99.90;;;;;;5006070;28;20041;-32
2023/10/27 00:37:11;;;;;;;3.15;0.95;;;10.00;99.90;;;;;;5007335;28;20084;-33
2023/10/27 00:39:39;;;;;;;1.70;1.00;;;10.10;99.90;;;;;;5004855;28;20100;-33
2023/10/27 00:42:05;;;;;;;3.00;1.17;;;10.10;99.90;;;;;;5007160;28;20165;-34
2023/10/27 00:44:31;;;;;;;1.15;1.05;;;10.10;99.90;;;;;;5009983;28;20519;-32
2023/10/27 00:46:56;;;;;;;3.92;1.30;;;10.10;99.90;;;;;;5006294;28;20064;-34
2023/10/27 00:49:22;;;;;;;1.55;0.85;;;10.10;99.90;;;;;;5008410;28;20034;-33
2023/10/27 00:51:49;;;;;;;1.45;1.30;;;10.10;99.90;;;;;;4990456;28;20490;-37
2023/10/27 00:54:17;;;;;;;1.23;1.00;;;10.20;99.90;;;;;;5004326;28;20406;-33
2023/10/27 00:56:47;;;;;;;4.65;1.23;;;10.00;99.90;;;;;;5003991;28;20037;-34
2023/10/27 00:59:14;;;;;;;2.28;0.82;;;9.90;99.90;;;;;;5006992;28;20034;-36
2023/10/27 01:01:42;;;;;;;1.38;0.75;;;10.00;99.90;;;;;;4989430;28;20088;-32
2023/10/27 01:04:07;;;;;;;1.25;1.00;;;10.00;99.90;;;;;;4993413;28;20061;-34
2023/10/27 01:06:33;;;;;;;1.30;0.80;;;10.10;99.90;;;;;;5005352;28;20111;-32
2023/10/27 01:08:58;;;;;;;1.20;0.95;;;10.00;99.90;;;;;;5012445;28;20160;-35
2023/10/27 01:11:24;;;;;;;2.13;1.50;;;10.00;99.90;;;;;;5002258;28;20536;-32
2023/10/27 01:13:54;;;;;;;2.03;1.08;;;10.00;99.90;;;;;;5006608;28;20041;-34
2023/10/27 01:16:21;;;;;;;1.20;1.10;;;10.00;99.90;;;;;;5008401;28;20038;-32
2023/10/27 01:18:46;;;;;;;1.60;1.30;;;10.00;99.90;;;;;;5006826;28;20033;-32
2023/10/27 01:21:12;;;;;;;1.80;1.08;;;10.00;99.90;;;;;;5005433;28;20459;-35
2023/10/27 01:23:37;;;;;;;2.58;0.90;;;10.00;99.90;;;;;;5001902;28;20164;-31
2023/10/27 01:26:03;;;;;;;2.67;1.48;;;10.00;99.90;;;;;;4997674;28;20033;-35
2023/10/27 01:28:30;;;;;;;1.58;0.80;;;10.00;99.90;;;;;;5003591;28;20060;-32
2023/10/27 01:30:56;;;;;;;1.00;1.00;;;10.00;99.90;;;;;;4998662;28;20148;-37
2023/10/27 01:33:22;;;;;;;2.47;0.95;;;10.10;99.90;;;;;;5011624;28;20522;-40
2023/10/27 01:35:48;;;;;;;2.25;0.90;;;10.10;99.90;;;;;;5003395;28;20108;-36
2023/10/27 01:38:14;;;;;;;1.00;0.90;;;10.00;99.90;;;;;;5006391;28;20112;-37
2023/10/27 01:40:39;;;;;;;2.28;1.00;;;9.90;99.90;;;;;;4999943;28;20030;-37
2023/10/27 01:43:05;;;;;;;1.25;0.88;;;9.90;99.90;;;;;;5009331;28;20567;-33
2023/10/27 01:45:30;;;;;;;0.70;0.70;;;9.80;99.90;;;;;;5001520;28;20419;-35
2023/10/27 01:47:56;;;;;;;2.05;1.05;;;9.80;99.90;;;;;;5001913;28;20490;-37
2023/10/27 01:50:21;;;;;;;2.95;1.38;;;9.80;99.90;;;;;;5003383;28;20113;-34
2023/10/27 01:52:47;;;;;;;2.20;1.10;;;9.80;99.90;;;;;;5013061;28;20026;-32
2023/10/27 01:55:13;;;;;;;1.55;0.90;;;9.80;99.90;;;;;;4988961;28;20061;-33
2023/10/27 01:57:39;;;;;;;2.22;1.65;;;9.80;99.90;;;;;;5004992;28;20055;-31
2023/10/27 02:00:05;;;;;;;3.08;0.95;;;9.80;99.90;;;;;;5003497;28;20058;-33
2023/10/27 02:02:30;;;;;;;3.28;1.17;;;9.80;99.90;;;;;;5005800;28;20065;-33
2023/10/27 02:04:56;;;;;;;2.97;0.90;;;9.80;99.90;;;;;;5006521;28;20062;-32
2023/10/27 02:07:24;;;;;;;1.73;0.82;;;9.80;99.90;;;;;;5005893;28;20030;-32
2023/10/27 02:09:50;;;;;;;;;;;9.80;99.90;;;;;;5005398;28;20056;-32
2023/10/27 02:12:16;;;;;;;1.90;1.10;;;9.80;99.90;;;;;;5004522;28;20836;-32
2023/10/27 02:14:42;;;;;;;3.10;1.10;;;9.80;99.90;;;;;;5003733;28;20057;-35
2023/10/27 02:17:07;;;;;;;3.95;1.20;;;9.80;99.90;;;;;;5009711;28;20299;-32
2023/10/27 02:19:33;;;;;;;9.25;3.65;;;9.80;99.90;;;;;;4998581;28;20487;-33
2023/10/27 02:21:59;;;;;;;4.78;1.52;;;9.80;99.90;;;;;;4999448;28;20080;-33
2023/10/27 02:24:24;;;;;;;2.22;1.60;;;9.80;99.90;;;;;;4999535;28;20037;-33
2023/10/27 02:26:50;;;;;;;1.80;1.13;;;9.70;99.90;;;;;;5006454;28;20053;-34
2023/10/27 02:29:17;;;;;;;1.75;1.23;;;9.70;99.90;;;;;;5007642;28;20747;-34
2023/10/27 02:31:43;;;;;;;1.33;1.23;;;9.70;99.90;;;;;;5011920;28;20057;-32
2023/10/27 02:34:09;;;;;;;2.55;1.65;;;9.80;99.90;;;;;;5007463;28;20026;-34
2023/10/27 02:36:34;;;;;;;1.77;1.20;;;9.70;99.90;;;;;;5002326;28;20668;-32
2023/10/27 02:39:00;;;;;;;2.97;1.45;;;9.70;99.90;;;;;;5006886;28;20045;-32
2023/10/27 02:41:25;;;;;;;2.70;1.45;;;9.70;99.90;;;;;;5009727;28;20743;-39
2023/10/27 02:43:51;;;;;;;1.50;1.10;;;9.70;99.90;;;;;;5011693;28;20022;-37
2023/10/27 02:46:17;;;;;;;3.17;1.75;;;9.60;99.90;;;;;;5008771;28;20247;-39
2023/10/27 02:48:42;;;;;;;2.17;1.13;;;9.70;99.90;;;;;;4991460;28;20035;-38
2023/10/27 02:51:09;;;;;;;2.17;1.10;;;9.70;99.90;;;;;;5009050;28;20054;-39
2023/10/27 02:53:35;;;;;;;1.30;1.05;;;9.70;99.90;;;;;;5009565;28;20036;-39
2023/10/27 02:56:08;;;;;;;3.90;1.40;;;9.70;99.90;;;;;;5007093;28;20022;-39
2023/10/27 02:58:34;;;;;;;2.15;1.10;;;9.60;99.90;;;;;;5010474;28;20605;-38
2023/10/27 03:00:59;;;;;;;2.90;1.40;;;9.70;99.90;;;;;;5012114;28;20132;-36
2023/10/27 03:03:27;;;;;;;1.77;1.27;;;9.70;99.90;;;;;;5006321;28;20059;-36
2023/10/27 03:05:54;;;;;;;8.30;7.40;;;9.70;99.90;;;;;;5008520;28;20034;-38
2023/10/27 03:08:19;;;;;;;5.72;3.15;;;9.70;99.90;;;;;;5009611;28;20323;-38
2023/10/27 03:10:45;;;;;;;3.30;3.00;;;9.70;99.90;;;;;;5008265;28;20056;-39
2023/10/27 03:13:10;;;;;;;3.08;1.60;;;9.60;99.90;;;;;;4995558;28;20537;-39
2023/10/27 03:15:36;;;;;;;2.00;1.10;;;9.70;99.90;;;;;;4989689;28;20058;-38
2023/10/27 03:18:02;;;;;;;2.63;1.40;;;9.70;99.90;;;;;;4998663;28;20034;-36
2023/10/27 03:20:28;;;;;;;1.85;1.30;;;9.70;99.90;;;;;;5002408;28;20108;-39
2023/10/27 03:22:54;;;;;;;3.05;1.10;;;9.70;99.90;;;;;;4996903;28;20036;-38
2023/10/27 03:25:20;;;;;;;2.15;1.10;;;9.70;99.90;;;;;;4996295;28;20034;-39
2023/10/27 03:27:45;;;;;;;1.90;1.08;;;9.80;99.90;;;;;;4997171;28;20069;-37
2023/10/27 03:30:11;;;;;;;1.38;0.93;;;9.70;99.90;;;;;;5000537;28;20018;-40
2023/10/27 03:32:37;;;;;;;1.73;1.10;;;9.70;99.90;;;;;;4995188;28;20064;-39
2023/10/27 03:35:03;;;;;;;1.42;1.00;;;9.60;99.90;;;;;;4995071;28;20034;-38
2023/10/27 03:37:28;;;;;;;1.52;1.42;;;9.60;99.90;;;;;;4997304;28;20088;-34
2023/10/27 03:39:54;;;;;;;2.05;1.08;;;9.60;99.90;;;;;;4996799;28;20022;-40
2023/10/27 03:42:20;;;;;;;2.88;1.15;;;9.60;99.90;;;;;;4999360;28;20476;-37
2023/10/27 03:44:45;;;;;;;2.25;1.00;;;9.60;99.90;;;;;;4996458;28;20670;-37
2023/10/27 03:47:11;;;;;;;2.20;1.10;;;9.60;99.90;;;;;;4996983;28;20065;-40
2023/10/27 03:49:36;;;;;;;2.53;1.10;;;9.60;99.90;;;;;;4996585;28;20041;-39
2023/10/27 03:52:02;;;;;;;1.83;1.02;;;9.60;99.90;;;;;;4998567;28;20034;-33
2023/10/27 03:54:28;;;;;;;2.88;1.10;;;9.70;99.90;;;;;;4996909;28;20502;-32
2023/10/27 03:56:55;;;;;;;1.98;1.08;;;9.70;99.90;;;;;;5000548;28;20056;-34
2023/10/27 03:59:21;;;;;;;0.98;0.90;;;9.70;99.90;;;;;;5005482;28;20025;-33
2023/10/27 04:01:46;;;;;;;1.60;1.20;;;9.60;99.90;;;;;;5004337;28;20746;-30
2023/10/27 04:04:12;;;;;;;2.08;1.10;;;9.70;99.90;;;;;;5008915;28;20086;-30
2023/10/27 04:06:38;;;;;;;1.80;1.05;;;9.60;99.90;;;;;;5011135;28;20499;-30
2023/10/27 04:09:04;;;;;;;1.17;1.00;;;9.70;99.90;;;;;;5003627;28;20479;-30
2023/10/27 04:11:29;;;;;;;2.13;1.10;;;9.60;99.90;;;;;;5011645;28;20452;-30
2023/10/27 04:13:55;;;;;;;1.50;1.08;;;9.70;99.90;;;;;;5003649;28;20030;-34
2023/10/27 04:16:21;;;;;;;2.35;1.20;;;9.70;99.90;;;;;;5006913;28;20018;-30
2023/10/27 04:18:46;;;;;;;2.28;1.02;;;9.70;99.90;;;;;;4999135;28;20030;-33
2023/10/27 04:21:12;;;;;;;2.38;1.08;;;9.70;99.90;;;;;;5001695;28;20038;-31
2023/10/27 04:23:37;;;;;;;2.92;1.15;;;9.70;99.90;;;;;;4983989;28;20041;-31
2023/10/27 04:26:03;;;;;;;3.75;1.20;;;9.70;99.90;;;;;;4996921;28;20037;-34
2023/10/27 04:28:29;;;;;;;1.05;1.05;;;9.70;99.90;;;;;;4996995;28;20046;-32
2023/10/27 04:30:54;;;;;;;2.83;1.10;;;9.70;99.90;;;;;;4996104;28;20539;-33
2023/10/27 04:33:22;;;;;;;1.52;1.10;;;9.70;99.90;;;;;;4997593;28;20115;-32
2023/10/27 04:35:48;;;;;;;1.92;1.13;;;9.70;99.90;;;;;;5002360;28;20037;-33
2023/10/27 04:38:14;;;;;;;2.45;1.10;;;9.70;99.90;;;;;;4999270;28;20034;-30
2023/10/27 04:40:39;;;;;;;2.55;1.17;;;9.60;99.90;;;;;;5007967;28;20044;-31
2023/10/27 04:43:05;;;;;;;1.92;1.30;;;9.70;99.90;;;;;;5008320;28;20025;-30
2023/10/27 04:45:31;;;;;;;2.42;1.10;;;9.60;99.90;;;;;;5008063;28;20379;-32
2023/10/27 04:47:56;;;;;;;2.05;1.85;;;9.70;99.90;;;;;;5007504;28;20025;-33
2023/10/27 04:50:23;;;;;;;2.20;1.00;;;9.70;99.90;;;;;;5013332;28;20061;-30
2023/10/27 04:52:49;;;;;;;1.17;0.93;;;9.70;99.90;;;;;;5014342;28;20073;-35
2023/10/27 04:55:15;;;;;;;2.80;1.35;;;9.70;99.90;;;;;;5009640;28;20105;-31
2023/10/27 04:57:41;;;;;;;2.38;1.42;;;9.70;99.90;;;;;;5012560;28;20029;-30
2023/10/27 05:00:10;;;;;;;2.05;1.30;;;9.70;99.90;;;;;;5013448;28;20853;-32
2023/10/27 05:02:35;;;;;;;3.85;1.67;;;9.70;99.90;;;;;;5012126;28;20522;-32
2023/10/27 05:05:02;;;;;;;1.65;1.42;;;9.70;99.90;;;;;;5012816;28;20034;-31
2023/10/27 05:07:28;;;;;;;1.30;1.20;;;9.70;99.90;;;;;;5008108;28;20513;-34
2023/10/27 05:09:53;;;;;;;2.50;1.35;;;9.70;99.90;;;;;;5008598;28;20038;-32
2023/10/27 05:12:19;;;;;;;2.38;1.50;;;9.70;99.90;;;;;;5009454;28;20432;-39
2023/10/27 05:14:45;;;;;;;3.83;1.80;;;9.60;99.90;;;;;;5010310;28;20784;-40
2023/10/27 05:17:10;;;;;;;3.13;1.85;;;9.60;99.90;;;;;;5010342;28;20092;-38
2023/10/27 05:19:36;;;;;;;1.58;1.48;;;9.60;99.90;;;;;;5009466;28;20114;-37
2023/10/27 05:22:05;;;;;;;2.13;1.73;;;9.70;99.90;;;;;;5012255;28;20072;-37
2023/10/27 05:24:34;;;;;;;2.63;1.90;;;9.60;99.90;;;;;;5002357;28;20025;-40
2023/10/27 05:27:00;;;;;;;3.20;2.15;;;9.70;99.90;;;;;;5008603;28;20030;-39
2023/10/27 05:29:26;;;;;;;2.35;1.98;;;9.70;99.90;;;;;;5006106;28;20503;-39
2023/10/27 05:31:52;;;;;;;2.33;1.83;;;9.70;99.90;;;;;;5007373;28;20053;-37
2023/10/27 05:34:18;;;;;;;2.50;2.03;;;9.70;99.90;;;;;;5012483;28;20045;-37
2023/10/27 05:36:43;;;;;;;2.47;1.90;;;9.70;99.90;;;;;;5001088;28;20608;-35
2023/10/27 05:39:16;;;;;;;2.15;1.70;;;9.70;99.90;;;;;;5001803;28;20491;-39
2023/10/27 05:41:46;;;;;;;3.58;2.00;;;9.60;99.90;;;;;;5004345;28;20336;-38
2023/10/27 05:44:12;;;;;;;3.00;1.80;;;9.70;99.90;;;;;;5002475;28;20121;-39
2023/10/27 05:46:38;;;;;;;2.83;2.15;;;9.70;99.90;;;;;;5000894;28;20029;-38
2023/10/27 05:49:04;;;;;;;2.70;2.03;;;9.70;99.90;;;;;;4999877;28;20041;-38
2023/10/27 05:51:30;;;;;;;1.90;1.75;;;9.70;99.90;;;;;;5002979;28;20049;-34
2023/10/27 05:53:56;;;;;;;2.15;1.92;;;9.70;99.90;;;;;;4997767;28;20034;-36
2023/10/27 05:56:22;;;;;;;3.00;2.70;;;9.70;99.90;;;;;;4998775;28;20041;-37
2023/10/27 05:58:47;;;;;;;3.45;2.15;;;9.70;99.90;;;;;;5006229;28;20057;-39
2023/10/27 06:01:14;;;;;;;2.40;2.20;;;9.70;99.90;;;;;;5001582;28;20104;-37
2023/10/27 06:03:39;;;;;;;2.63;2.20;;;9.70;99.90;;;;;;4984269;28;20030;-39
2023/10/27 06:06:05;;;;;;;4.35;2.40;;;9.70;99.90;;;;;;5005955;28;20037;-38
2023/10/27 06:08:30;;;;;;;2.60;2.22;;;9.70;99.90;;;;;;5003604;28;20117;-39
2023/10/27 06:10:56;;;;;;;2.50;2.30;;;9.70;99.90;;;;;;4995431;28;20088;-36
2023/10/27 06:13:22;;;;;;;3.08;2.20;;;9.70;99.90;;;;;;5003482;28;20046;-40
2023/10/27 06:15:48;;;;;;;2.88;2.60;;;9.70;99.90;;;;;;5005645;28;20480;-37
2023/10/27 06:18:14;;;;;;;4.35;2.38;;;9.70;99.90;;;;;;5001204;28;20018;-38
2023/10/27 06:20:39;;;;;;;2.88;2.22;;;9.70;99.90;;;;;;5003898;28;20026;-39
2023/10/27 06:23:05;;;;;;;2.70;2.38;;;9.70;99.90;;;;;;4991662;28;20028;-32
2023/10/27 06:25:31;;;;;;;3.75;1.95;;;9.70;99.90;;;;;;4999160;28;20053;-32
2023/10/27 06:27:56;;;;;;;2.28;2.00;;;9.70;99.90;;;;;;5003537;28;20064;-35
2023/10/27 06:30:23;;;;;;;5.97;2.17;;;9.70;99.90;;;;;;5002751;28;20038;-33
2023/10/27 06:32:48;;;;;;;3.15;2.15;;;9.70;99.90;;;;;;5002599;28;20038;-35
2023/10/27 06:35:14;;;;;;;2.97;2.00;;;9.70;99.90;;;;;;5003481;28;20088;-33
2023/10/27 06:37:40;;;;;;;2.97;2.10;;;9.80;99.90;;;;;;5001700;28;20028;-32
2023/10/27 06:40:06;;;;;;;2.85;2.20;;;9.80;99.90;;;;;;5006687;28;20037;-33
2023/10/27 06:42:32;;;;;;;2.88;2.50;;;9.80;99.90;;;;;;5004107;28;20410;-31
2023/10/27 06:44:57;;;;;;;3.25;2.38;;;9.90;99.90;;;;;;5008961;28;20042;-32
2023/10/27 06:47:23;;;;;;;3.00;2.17;;;9.90;99.90;;;;;;4986379;28;20034;-33
2023/10/27 06:49:48;;;;;;;3.58;2.10;;;9.90;99.90;;;;;;5000841;28;20038;-35
2023/10/27 06:52:14;;;;;;;2.90;2.10;;;9.90;99.90;;;;;;5003614;28;20696;-33
2023/10/27 06:54:40;;;;;;;2.78;2.20;;;9.90;99.90;;;;;;5004844;28;20538;-32
2023/10/27 06:57:07;;;;;;;3.33;2.15;;;9.90;99.90;;;;;;5007871;28;20037;-31
2023/10/27 06:59:33;;;;;;;2.50;2.00;;;10.00;99.90;;;;;;5004553;28;20044;-32
2023/10/27 07:01:58;;;;;;;1.98;1.77;;;10.00;99.90;;;;;;5002971;28;20438;-32
2023/10/27 07:04:24;;;;;;;2.17;1.80;;;10.00;99.90;;;;;;5003489;28;20033;-33
2023/10/27 07:06:49;;;;;;;1.90;1.73;;;10.00;99.90;;;;;;5002856;28;20029;-33
2023/10/27 07:09:15;;;;;;;2.75;1.52;;;10.00;99.90;;;;;;5001862;28;20479;-33
2023/10/27 07:11:41;;;;;;;2.13;1.33;;;10.00;99.90;;;;;;5003383;28;20494;-34
2023/10/27 07:14:06;;;;;;;1.85;1.75;;;10.00;99.90;;;;;;4995686;28;20038;-35
2023/10/27 07:16:32;;;;;;;1.50;1.40;;;10.00;99.90;;;;;;4988516;28;20014;-32
2023/10/27 07:18:58;;;;;;;2.20;1.58;;;10.00;99.90;;;;;;5000986;28;20058;-34
2023/10/27 07:21:23;;;;;;;2.20;1.98;;;10.00;99.90;;;;;;4998055;28;20622;-33
2023/10/27 07:23:49;;;;;;;3.67;1.60;;;10.10;99.90;;;;;;5006137;28;20030;-35
2023/10/27 07:26:15;;;;;;;2.53;1.88;;;10.10;99.90;;;;;;4994693;28;20664;-33
2023/10/27 07:28:42;;;;;;;2.28;2.08;;;10.10;99.90;;;;;;5001082;28;20050;-32
2023/10/27 07:31:08;;;;;;;2.35;2.15;;;10.20;99.90;;;;;;4998932;28;20129;-40
2023/10/27 07:33:35;;;;;;;2.88;2.25;;;10.20;99.90;;;;;;5004295;28;20073;-30
2023/10/27 07:36:02;;;;;;;4.35;1.92;;;10.20;99.90;;;;;;4995280;28;20081;-30
2023/10/27 07:38:28;;;;;;;2.63;2.22;;;10.20;99.90;;;;;;5003232;28;20121;-33
2023/10/27 07:40:58;;;;;;;2.38;2.17;;;10.30;99.90;;;;;;5005729;28;20112;-30
2023/10/27 07:43:24;;;;;;;2.50;2.30;;;10.30;99.90;;;;;;5005429;28;20041;-33
2023/10/27 07:45:50;;;;;;;3.38;2.10;;;10.30;99.90;;;;;;5003895;28;20029;-33
2023/10/27 07:48:15;;;;;;;2.25;2.05;;;10.30;99.90;;;;;;5006530;28;20032;-30
2023/10/27 07:50:42;;;;;;;1.95;1.75;;;10.30;99.90;;;;;;4999950;28;20058;-30
2023/10/27 07:53:08;;;;;;;2.28;1.88;;;10.30;99.90;;;;;;4999329;28;20034;-31
2023/10/27 07:55:35;;;;;;;1.77;1.67;;;10.40;99.90;;;;;;5007846;28;20030;-30
2023/10/27 07:58:00;;;;;;;2.05;1.80;;;10.50;99.90;;;;;;5004594;28;20088;-29
2023/10/27 08:00:26;;;;;;;1.60;1.40;;;10.60;99.90;;;;;;4993373;28;20125;-30
2023/10/27 08:02:52;;;;;;;3.22;1.48;;;10.70;99.90;;;;;;5006196;28;20033;-30
2023/10/27 08:05:18;;;;;;;0.98;0.95;;;10.70;99.90;;;;;;5013713;28;20475;-33
2023/10/27 08:07:44;;;;;;;1.13;1.02;;;10.70;99.90;;;;;;5008157;28;20036;-30
2023/10/27 08:10:10;;;;;;;1.27;1.20;;;10.70;99.90;;;;;;4996611;28;20591;-30
2023/10/27 08:12:36;;;;;;;1.63;1.00;;;10.70;99.90;;;;;;5007465;28;20032;-31
2023/10/27 08:15:05;;;;;;;1.05;0.82;;;10.80;99.90;;;;;;5004524;28;20112;-29
2023/10/27 08:17:32;;;;;;;1.60;0.90;;;11.00;99.90;;;;;;4985523;28;20049;-31
2023/10/27 08:19:57;;;;;;;0.80;0.80;;;11.10;99.90;;;;;;5016743;28;20036;-31
2023/10/27 08:22:23;;;;;;;0.80;0.73;;;11.30;99.90;;;;;;5010013;28;20492;-35
2023/10/27 08:24:49;;;;;;;0.50;0.50;;;11.50;99.90;;;;;;5007054;28;20083;-32
2023/10/27 08:27:14;;;;;;;0.60;0.60;;;11.60;99.90;;;;;;4984257;28;20715;-30
2023/10/27 08:29:40;;;;;;;0.73;0.68;;;11.60;99.90;;;;;;5009136;28;20104;-30
2023/10/27 08:32:05;;;;;;;0.43;0.43;;;11.80;99.90;;;;;;5006419;28;20049;-30
2023/10/27 08:34:31;;;;;;;0.73;0.50;;;11.90;99.90;;;;;;4993340;28;20057;-30
2023/10/27 08:36:57;;;;;;;2.28;0.70;;;11.80;99.90;;;;;;5009971;28;20391;-30
2023/10/27 08:39:24;;;;;;;0.60;0.60;;;11.70;99.90;;;;;;5014461;28;20029;-30
2023/10/27 08:41:50;;;;;;;1.83;0.77;;;11.70;99.90;;;;;;5010716;28;20033;-32
2023/10/27 08:44:17;;;;;;;0.40;0.40;;;11.70;99.90;;;;;;5006483;28;20233;-32
2023/10/27 08:46:43;;;;;;;0.30;0.30;;;11.60;99.90;;;;;;5011420;28;20037;-33
2023/10/27 08:49:09;;;;;;;0.50;0.50;;;11.60;99.90;;;;;;5008166;28;20037;-32
2023/10/27 08:51:35;;;;;;;0.52;0.52;;;11.70;99.90;;;;;;5003865;28;20030;-31
2023/10/27 08:54:01;;;;;;;0.50;0.50;;;11.70;99.90;;;;;;5004403;28;20037;-31
2023/10/27 08:56:28;;;;;;;0.40;0.40;;;11.80;99.90;;;;;;5010015;28;20038;-32
2023/10/27 08:58:54;;;;;;;0.70;0.70;;;11.70;99.90;;;;;;5011858;28;20578;-32
2023/10/27 09:01:19;;;;;;;0.60;0.60;;;11.80;99.90;;;;;;5005864;28;20065;-31
2023/10/27 09:04:06;;;;;;;0.50;0.50;;;11.90;99.90;;;;;;5008452;28;20414;-33
2023/10/27 09:06:33;;;;;;;0.47;0.47;;;11.90;99.90;;;;;;4985956;28;20026;-32
2023/10/27 09:08:58;;;;;;;0.30;0.30;;;11.90;99.90;;;;;;5007501;28;20038;-34
2023/10/27 09:11:24;;;;;;;0.60;0.40;;;11.70;99.90;;;;;;5006398;28;20026;-32
2023/10/27 09:13:49;;;;;;;0.30;0.30;;;11.60;99.90;;;;;;5006633;28;20101;-35
2023/10/27 09:16:28;;;;;;;0.22;0.22;;;11.60;99.90;;;;;;5004649;28;20038;-32
2023/10/27 09:18:55;;;;;;;0.40;0.40;;;11.60;99.90;;;;;;5005746;28;20097;-32
2023/10/27 09:21:32;;;;;;;0.40;0.40;;;11.60;99.90;;;;;;5005550;28;20480;-42
2023/10/27 09:23:58;;;;;;;0.50;0.50;;;11.70;99.90;;;;;;5006546;28;20022;-41
2023/10/27 09:26:28;;;;;;;0.55;0.55;;;11.70;99.90;;;;;;5002007;28;20041;-38
2023/10/27 09:29:01;;;;;;;2.80;0.55;;;11.80;99.90;;;;;;5006720;28;20056;-39
2023/10/27 09:31:34;;;;;;;0.40;0.40;;;11.80;99.90;;;;;;5005323;28;20030;-39
2023/10/27 09:34:23;;;;;;;1.88;0.63;;;11.60;99.90;;;;;;4999088;28;20081;-41
2023/10/27 09:36:57;;;;;;;0.50;0.50;;;11.60;99.90;;;;;;4992451;28;20041;-34
2023/10/27 09:39:23;;;;;;;0.50;0.50;;;11.60;99.90;;;;;;5003985;28;20029;-42
2023/10/27 09:41:49;;;;;;;0.73;0.70;;;11.50;99.90;;;;;;4997288;28;20034;-37
2023/10/27 09:44:16;;;;;;;0.60;0.60;;;11.60;99.90;;;;;;4985002;28;20785;-33
2023/10/27 09:46:52;;;;;;;1.15;0.70;;;11.60;99.90;;;;;;4996155;28;20034;-40
2023/10/27 09:49:38;;;;;;;1.13;0.80;;;11.60;99.90;;;;;;5003054;28;20030;-40
2023/10/27 09:52:11;;;;;;;0.68;0.55;;;11.70;99.90;;;;;;5004699;28;20510;-31
2023/10/27 09:54:38;;;;;;;0.98;0.98;;;11.80;99.90;;;;;;5001665;28;20069;-33
2023/10/27 09:57:05;;;;;;;0.60;0.60;;;11.90;99.90;;;;;;5006950;28;20815;-29
2023/10/27 09:59:31;;;;;;;0.50;0.50;;;11.90;99.90;;;;;;5007746;28;20101;-31
2023/10/27 10:02:05;;;;;;;0.80;0.70;;;12.00;99.90;;;;;;5002687;28;20129;-36
2023/10/27 10:04:52;;;;;;;0.77;0.77;;;12.00;99.90;;;;;;4992220;28;20496;-30
2023/10/27 10:07:34;;;;;;;0.57;0.57;;;12.10;99.90;;;;;;5004997;28;20053;-30
2023/10/27 10:10:33;;;;;;;0.43;0.43;;;12.20;99.90;;;;;;5005102;28;20514;-33
2023/10/27 10:13:02;;;;;;;1.02;0.90;;;12.40;99.90;;;;;;4947892;28;20045;-30
2023/10/27 10:15:31;;;;;;;1.95;0.70;;;12.50;99.90;;;;;;4996066;28;20788;-30
2023/10/27 10:17:57;;;;;;;0.57;0.57;;;12.60;99.90;;;;;;5004835;28;20068;-34
2023/10/27 10:20:44;;;;;;;0.80;0.80;;;12.60;99.90;;;;;;5006084;28;20112;-30
2023/10/27 10:23:10;;;;;;;1.27;0.60;;;12.60;99.90;;;;;;5006305;28;20566;-33
2023/10/27 10:25:36;;;;;;;0.63;0.63;;;12.60;99.90;;;;;;5002496;28;20105;-30
2023/10/27 10:28:11;;;;;;;0.68;0.60;;;12.50;99.90;;;;;;5001773;28;20129;-30
2023/10/27 10:30:39;;;;;;;0.98;0.63;;;12.60;99.90;;;;;;5001441;28;20141;-30
2023/10/27 10:33:16;;;;;;;0.57;0.57;;;12.50;99.90;;;;;;5006971;28;20037;-32
2023/10/27 10:35:48;;;;;;;2.65;0.82;;;12.60;99.90;;;;;;5006720;28;20072;-32
2023/10/27 10:38:21;;;;;;;0.73;0.73;;;12.70;99.90;;;;;;5006748;28;20246;-30
2023/10/27 10:40:49;;;;;;;0.55;0.50;;;12.90;99.90;;;;;;4994810;28;20044;-30
2023/10/27 10:43:20;;;;;;;2.38;0.63;;;12.80;99.90;;;;;;4997765;28;20018;-37
2023/10/27 10:46:11;;;;;;;1.17;0.77;;;12.80;99.90;;;;;;5008647;28;20032;-39
2023/10/27 10:48:42;;;;;;;0.95;0.95;;;12.80;99.90;;;;;;5002777;28;20080;-37
2023/10/27 10:51:16;;;;;;;3.95;0.63;;;12.60;99.90;;;;;;5001178;28;20172;-38
2023/10/27 10:53:43;;;;;;;0.98;0.55;;;12.70;99.90;;;;;;5000493;28;20046;-39
2023/10/27 10:56:09;;;;;;;0.55;0.55;;;12.60;99.90;;;;;;4999856;28;20607;-39
2023/10/27 10:58:40;;;;;;;1.45;0.40;;;12.80;99.90;;;;;;5003495;28;20104;-38
2023/10/27 11:01:15;;;;;;;1.05;0.50;;;12.90;99.90;;;;;;4996955;28;20503;-39
2023/10/27 11:03:49;;;;;;;0.73;0.60;;;12.80;99.90;;;;;;5009487;28;20479;-38
2023/10/27 11:06:19;;;;;;;1.67;0.63;;;12.80;99.90;;;;;;5000293;28;20022;-38
2023/10/27 11:08:45;;;;;;;1.38;0.70;;;12.90;99.90;;;;;;5001929;28;20076;-37
2023/10/27 11:11:16;;;;;;;1.33;0.50;;;13.00;99.90;;;;;;5001075;28;20755;-39
2023/10/27 11:13:51;;;;;;;1.60;0.88;;;13.00;99.90;;;;;;5010166;28;20489;-39
2023/10/27 11:16:24;;;;;;;1.45;0.63;;;13.00;99.90;;;;;;5001236;28;20033;-36
2023/10/27 11:19:02;;;;;;;1.27;0.82;;;13.10;99.90;;;;;;5001128;28;20461;-38
2023/10/27 11:21:32;;;;;;;0.50;0.50;;;13.10;99.90;;;;;;4993176;28;20033;-39
2023/10/27 11:23:58;;;;;;;0.93;0.70;;;13.20;99.90;;;;;;5005893;28;20170;-38
2023/10/27 11:26:26;;;;;;;0.52;0.50;;;13.10;99.90;;;;;;5006666;28;20037;-38
2023/10/27 11:28:55;;;;;;;3.17;0.77;;;13.20;99.90;;;;;;5003026;28;20092;-39
2023/10/27 11:31:26;;;;;;;1.58;0.68;;;13.30;99.90;;;;;;5001336;28;20030;-39
2023/10/27 11:34:06;;;;;;;1.30;0.63;;;13.20;99.90;;;;;;5004685;28;20489;-36
2023/10/27 11:36:43;;;;;;;0.85;0.70;;;13.20;99.90;;;;;;5003947;28;20100;-37
2023/10/27 11:39:20;;;;;;;0.57;0.57;;;13.10;99.90;;;;;;4999920;28;20592;-38
2023/10/27 11:42:00;;;;;;;4.93;0.80;;;13.10;99.90;;;;;;4996408;28;20026;-38
2023/10/27 11:44:40;;;;;;;0.63;0.60;;;13.30;99.90;;;;;;4996869;28;20108;-39
2023/10/27 11:47:06;;;;;;;1.45;0.50;;;13.30;99.90;;;;;;4999405;28;20065;-36
2023/10/27 11:49:32;;;;;;;1.65;0.40;;;13.50;99.90;;;;;;5000719;28;20609;-38
2023/10/27 11:51:58;;;;;;;1.13;0.52;;;13.50;99.90;;;;;;5008111;28;20387;-32
2023/10/27 11:54:25;;;;;;;4.30;0.70;;;13.50;99.90;;;;;;5010298;28;20030;-33
2023/10/27 11:56:51;;;;;;;1.17;0.65;;;13.50;99.90;;;;;;5008144;28;20077;-33
2023/10/27 11:59:17;;;;;;;1.35;0.65;;;13.50;99.90;;;;;;5009286;28;20021;-33
2023/10/27 12:01:44;;;;;;;1.75;0.77;;;13.50;99.90;;;;;;5013900;28;20046;-39
2023/10/27 12:04:13;;;;;;;1.48;0.43;;;13.50;99.90;;;;;;5011109;28;20017;-41
2023/10/27 12:06:40;;;;;;;2.35;0.50;;;13.40;99.90;;;;;;5009691;28;20113;-41
2023/10/27 12:09:06;;;;;;;1.73;0.40;;;13.50;99.90;;;;;;5006383;28;20129;-40
2023/10/27 12:11:32;;;;;;;0.40;0.40;;;13.60;99.90;;;;;;5010312;28;20503;-39
2023/10/27 12:13:58;;;;;;;1.45;0.65;;;13.60;99.90;;;;;;5008614;28;20076;-38
2023/10/27 12:16:23;;;;;;;1.27;0.47;;;13.50;99.90;;;;;;5012876;28;20579;-38
2023/10/27 12:18:49;;;;;;;0.80;0.77;;;13.40;99.90;;;;;;5006927;28;20037;-34
2023/10/27 12:21:15;;;;;;;1.65;0.60;;;13.30;99.90;;;;;;5008612;28;20044;-31
2023/10/27 12:23:40;;;;;;;0.50;0.50;;;13.10;99.90;;;;;;5005335;28;20057;-30
2023/10/27 12:26:07;;;;;;;0.85;0.57;;;13.10;99.90;;;;;;5003548;28;20033;-30
2023/10/27 12:28:34;;;;;;;1.33;0.70;;;13.10;99.90;;;;;;5007987;28;20510;-31
2023/10/27 12:31:00;;;;;;;1.48;0.60;;;13.10;99.90;;;;;;5000314;28;20049;-30
2023/10/27 12:33:25;;;;;;;1.60;0.60;;;13.20;99.90;;;;;;5002904;28;20911;-30
2023/10/27 12:35:51;;;;;;;0.90;0.40;;;13.30;99.90;;;;;;5004428;28;20029;-32
2023/10/27 12:38:20;;;;;;;1.35;0.60;;;13.40;99.90;;;;;;5005825;28;20072;-32
2023/10/27 12:40:47;;;;;;;1.50;0.40;;;13.50;99.90;;;;;;5002605;28;20017;-30
2023/10/27 12:43:14;;;;;;;2.65;0.70;;;13.40;99.90;;;;;;5001768;28;20565;-30
2023/10/27 12:45:41;;;;;;;2.08;0.70;;;13.50;99.90;;;;;;5003469;28;20038;-29
2023/10/27 12:48:07;;;;;;;0.52;0.32;;;13.40;99.90;;;;;;4994417;28;20049;-33
2023/10/27 12:50:34;;;;;;;0.30;0.30;;;13.40;99.90;;;;;;4996464;28;20034;-30